sensor_id;sensor_type;location;lat;lon;timestamp;P1;durP1;ratioP1;P2;durP2;ratioP2
71104;SDS011;58760;48.716;8.962;2024-02-26T00:00:27;5.13;;;1.90;;
71104;SDS011;58760;48.716;8.962;2024-02-26T00:02:54;5.68;;;1.60;;
71104;SDS011;58760;48.716;8.962;2024-02-26T00:05:19;5.57;;;1.75;;
71104;SDS011;58760;48.716;8.962;2024-02-26T00:07:44;6.05;;;2.00;;
71104;SDS011;58760;48.716;8.962;2024-02-26T00:10:10;4.85;;;1.80;;
71104;SDS011;58760;48.716;8.962;2024-02-26T00:12:35;5.47;;;1.98;;
71104;SDS011;58760;48.716;8.962;2024-02-26T00:15:01;5.15;;;1.90;;
71104;SDS011;58760;48.716;8.962;2024-02-26T00:17:26;6.15;;;1.98;;
71104;SDS011;58760;48.716;8.962;2024-02-26T00:19:52;6.75;;;1.80;;
71104;SDS011;58760;48.716;8.962;2024-02-26T00:22:19;3.63;;;1.60;;
71104;SDS011;58760;48.716;8.962;2024-02-26T00:24:44;4.38;;;1.77;;
71104;SDS011;58760;48.716;8.962;2024-02-26T00:27:10;5.28;;;1.98;;
71104;SDS011;58760;48.716;8.962;2024-02-26T00:29:36;7.15;;;2.00;;
71104;SDS011;58760;48.716;8.962;2024-02-26T00:32:01;6.03;;;2.13;;
71104;SDS011;58760;48.716;8.962;2024-02-26T00:34:27;4.32;;;1.73;;
71104;SDS011;58760;48.716;8.962;2024-02-26T00:36:52;4.45;;;1.92;;
71104;SDS011;58760;48.716;8.962;2024-02-26T00:39:18;4.63;;;1.90;;
71104;SDS011;58760;48.716;8.962;2024-02-26T00:41:43;4.05;;;1.70;;
71104;SDS011;58760;48.716;8.962;2024-02-26T00:44:09;5.82;;;1.95;;
71104;SDS011;58760;48.716;8.962;2024-02-26T00:46:34;5.97;;;1.98;;
71104;SDS011;58760;48.716;8.962;2024-02-26T00:51:27;6.55;;;1.92;;
71104;SDS011;58760;48.716;8.962;2024-02-26T00:53:53;5.25;;;2.13;;
71104;SDS011;58760;48.716;8.962;2024-02-26T00:56:19;5.85;;;2.05;;
71104;SDS011;58760;48.716;8.962;2024-02-26T00:58:47;5.53;;;2.05;;
71104;SDS011;58760;48.716;8.962;2024-02-26T01:01:14;4.82;;;1.88;;
71104;SDS011;58760;48.716;8.962;2024-02-26T01:03:39;7.32;;;2.30;;
71104;SDS011;58760;48.716;8.962;2024-02-26T01:06:04;5.00;;;2.08;;
71104;SDS011;58760;48.716;8.962;2024-02-26T01:08:31;7.13;;;2.00;;
71104;SDS011;58760;48.716;8.962;2024-02-26T01:10:56;5.15;;;2.00;;
71104;SDS011;58760;48.716;8.962;2024-02-26T01:13:22;4.75;;;1.98;;
71104;SDS011;58760;48.716;8.962;2024-02-26T01:15:47;5.90;;;1.67;;
71104;SDS011;58760;48.716;8.962;2024-02-26T01:18:13;5.13;;;1.90;;
71104;SDS011;58760;48.716;8.962;2024-02-26T01:20:40;4.15;;;1.60;;
71104;SDS011;58760;48.716;8.962;2024-02-26T01:23:05;5.15;;;1.80;;
71104;SDS011;58760;48.716;8.962;2024-02-26T01:25:32;5.70;;;2.50;;
71104;SDS011;58760;48.716;8.962;2024-02-26T01:27:58;6.85;;;2.30;;
71104;SDS011;58760;48.716;8.962;2024-02-26T01:30:23;5.10;;;2.28;;
71104;SDS011;58760;48.716;8.962;2024-02-26T01:32:49;6.43;;;2.40;;
71104;SDS011;58760;48.716;8.962;2024-02-26T01:35:15;5.05;;;2.08;;
71104;SDS011;58760;48.716;8.962;2024-02-26T01:37:40;5.35;;;2.22;;
71104;SDS011;58760;48.716;8.962;2024-02-26T01:40:06;4.97;;;2.10;;
71104;SDS011;58760;48.716;8.962;2024-02-26T01:42:34;5.57;;;1.92;;
71104;SDS011;58760;48.716;8.962;2024-02-26T01:45:03;4.35;;;1.50;;
71104;SDS011;58760;48.716;8.962;2024-02-26T01:47:30;6.13;;;1.85;;
71104;SDS011;58760;48.716;8.962;2024-02-26T01:49:56;4.55;;;1.65;;
71104;SDS011;58760;48.716;8.962;2024-02-26T01:52:22;6.65;;;2.47;;
71104;SDS011;58760;48.716;8.962;2024-02-26T01:54:48;5.70;;;1.90;;
71104;SDS011;58760;48.716;8.962;2024-02-26T01:57:14;5.35;;;1.95;;
71104;SDS011;58760;48.716;8.962;2024-02-26T01:59:40;5.35;;;2.10;;
71104;SDS011;58760;48.716;8.962;2024-02-26T02:02:07;5.38;;;1.98;;
71104;SDS011;58760;48.716;8.962;2024-02-26T02:04:35;5.28;;;1.70;;
71104;SDS011;58760;48.716;8.962;2024-02-26T02:07:02;6.60;;;1.50;;
71104;SDS011;58760;48.716;8.962;2024-02-26T02:09:30;7.43;;;1.98;;
71104;SDS011;58760;48.716;8.962;2024-02-26T02:11:56;4.45;;;1.52;;
71104;SDS011;58760;48.716;8.962;2024-02-26T02:14:23;3.38;;;1.40;;
71104;SDS011;58760;48.716;8.962;2024-02-26T02:16:50;3.35;;;1.30;;
71104;SDS011;58760;48.716;8.962;2024-02-26T02:19:16;3.45;;;1.33;;
71104;SDS011;58760;48.716;8.962;2024-02-26T02:21:41;3.20;;;1.25;;
71104;SDS011;58760;48.716;8.962;2024-02-26T02:24:07;2.50;;;1.10;;
71104;SDS011;58760;48.716;8.962;2024-02-26T02:26:32;2.20;;;1.00;;
71104;SDS011;58760;48.716;8.962;2024-02-26T02:28:58;4.28;;;1.17;;
71104;SDS011;58760;48.716;8.962;2024-02-26T02:31:24;3.00;;;0.90;;
71104;SDS011;58760;48.716;8.962;2024-02-26T02:33:50;2.40;;;0.85;;
71104;SDS011;58760;48.716;8.962;2024-02-26T02:36:17;2.83;;;1.10;;
71104;SDS011;58760;48.716;8.962;2024-02-26T02:38:51;2.47;;;1.10;;
71104;SDS011;58760;48.716;8.962;2024-02-26T02:41:18;3.05;;;1.00;;
71104;SDS011;58760;48.716;8.962;2024-02-26T02:43:44;1.63;;;0.73;;
71104;SDS011;58760;48.716;8.962;2024-02-26T02:46:09;2.72;;;0.80;;
71104;SDS011;58760;48.716;8.962;2024-02-26T02:48:38;2.05;;;0.75;;
71104;SDS011;58760;48.716;8.962;2024-02-26T02:51:04;1.55;;;0.80;;
71104;SDS011;58760;48.716;8.962;2024-02-26T02:53:30;1.65;;;0.70;;
71104;SDS011;58760;48.716;8.962;2024-02-26T02:55:55;1.15;;;0.70;;
71104;SDS011;58760;48.716;8.962;2024-02-26T02:58:20;2.50;;;0.80;;
71104;SDS011;58760;48.716;8.962;2024-02-26T03:00:46;2.53;;;0.90;;
71104;SDS011;58760;48.716;8.962;2024-02-26T03:03:11;1.02;;;0.52;;
71104;SDS011;58760;48.716;8.962;2024-02-26T03:05:37;2.67;;;0.82;;
71104;SDS011;58760;48.716;8.962;2024-02-26T03:08:03;1.33;;;0.77;;
71104;SDS011;58760;48.716;8.962;2024-02-26T03:10:31;1.73;;;0.80;;
71104;SDS011;58760;48.716;8.962;2024-02-26T03:12:58;1.48;;;0.70;;
71104;SDS011;58760;48.716;8.962;2024-02-26T03:15:31;1.50;;;0.70;;
71104;SDS011;58760;48.716;8.962;2024-02-26T03:20:26;2.95;;;0.50;;
71104;SDS011;58760;48.716;8.962;2024-02-26T03:22:52;1.10;;;0.50;;
71104;SDS011;58760;48.716;8.962;2024-02-26T03:25:17;0.45;;;0.20;;
71104;SDS011;58760;48.716;8.962;2024-02-26T03:27:43;0.40;;;0.32;;
71104;SDS011;58760;48.716;8.962;2024-02-26T03:30:09;2.63;;;0.55;;
71104;SDS011;58760;48.716;8.962;2024-02-26T03:32:35;1.55;;;0.60;;
71104;SDS011;58760;48.716;8.962;2024-02-26T03:35:00;0.60;;;0.32;;
71104;SDS011;58760;48.716;8.962;2024-02-26T03:37:26;0.88;;;0.50;;
71104;SDS011;58760;48.716;8.962;2024-02-26T03:39:51;0.82;;;0.50;;
71104;SDS011;58760;48.716;8.962;2024-02-26T03:42:17;0.70;;;0.40;;
71104;SDS011;58760;48.716;8.962;2024-02-26T03:44:42;0.93;;;0.60;;
71104;SDS011;58760;48.716;8.962;2024-02-26T03:47:07;0.75;;;0.43;;
71104;SDS011;58760;48.716;8.962;2024-02-26T03:49:33;2.28;;;0.70;;
71104;SDS011;58760;48.716;8.962;2024-02-26T03:51:59;1.05;;;0.60;;
71104;SDS011;58760;48.716;8.962;2024-02-26T03:54:24;1.45;;;0.60;;
71104;SDS011;58760;48.716;8.962;2024-02-26T03:56:51;2.58;;;0.63;;
71104;SDS011;58760;48.716;8.962;2024-02-26T03:59:17;1.27;;;0.60;;
71104;SDS011;58760;48.716;8.962;2024-02-26T04:01:47;2.47;;;0.90;;
71104;SDS011;58760;48.716;8.962;2024-02-26T04:04:13;5.28;;;1.10;;
71104;SDS011;58760;48.716;8.962;2024-02-26T04:06:38;3.60;;;1.15;;
71104;SDS011;58760;48.716;8.962;2024-02-26T04:09:04;3.88;;;1.10;;
71104;SDS011;58760;48.716;8.962;2024-02-26T04:11:29;4.78;;;1.15;;
71104;SDS011;58760;48.716;8.962;2024-02-26T04:13:56;2.75;;;1.00;;
71104;SDS011;58760;48.716;8.962;2024-02-26T04:16:22;2.15;;;1.05;;
71104;SDS011;58760;48.716;8.962;2024-02-26T04:18:48;3.78;;;1.05;;
71104;SDS011;58760;48.716;8.962;2024-02-26T04:21:14;3.50;;;0.93;;
71104;SDS011;58760;48.716;8.962;2024-02-26T04:23:39;3.47;;;1.00;;
71104;SDS011;58760;48.716;8.962;2024-02-26T04:26:05;2.78;;;0.80;;
71104;SDS011;58760;48.716;8.962;2024-02-26T04:28:30;1.50;;;0.52;;
71104;SDS011;58760;48.716;8.962;2024-02-26T04:30:56;2.08;;;0.63;;
71104;SDS011;58760;48.716;8.962;2024-02-26T04:33:21;2.17;;;1.00;;
71104;SDS011;58760;48.716;8.962;2024-02-26T04:35:47;3.95;;;0.80;;
71104;SDS011;58760;48.716;8.962;2024-02-26T04:38:12;1.25;;;0.77;;
71104;SDS011;58760;48.716;8.962;2024-02-26T04:40:38;2.97;;;0.75;;
71104;SDS011;58760;48.716;8.962;2024-02-26T04:43:04;4.35;;;1.17;;
71104;SDS011;58760;48.716;8.962;2024-02-26T04:45:30;2.25;;;0.70;;
71104;SDS011;58760;48.716;8.962;2024-02-26T04:47:59;1.02;;;0.57;;
71104;SDS011;58760;48.716;8.962;2024-02-26T04:50:24;1.15;;;0.60;;
71104;SDS011;58760;48.716;8.962;2024-02-26T04:52:51;1.58;;;0.80;;
71104;SDS011;58760;48.716;8.962;2024-02-26T04:55:21;1.40;;;0.73;;
71104;SDS011;58760;48.716;8.962;2024-02-26T04:57:46;2.70;;;0.63;;
71104;SDS011;58760;48.716;8.962;2024-02-26T05:02:39;2.22;;;0.80;;
71104;SDS011;58760;48.716;8.962;2024-02-26T05:05:05;1.20;;;0.70;;
71104;SDS011;58760;48.716;8.962;2024-02-26T05:07:31;2.97;;;0.80;;
71104;SDS011;58760;48.716;8.962;2024-02-26T05:09:57;2.33;;;0.70;;
71104;SDS011;58760;48.716;8.962;2024-02-26T05:12:22;1.17;;;0.70;;
71104;SDS011;58760;48.716;8.962;2024-02-26T05:14:48;1.50;;;0.90;;
71104;SDS011;58760;48.716;8.962;2024-02-26T05:17:13;2.33;;;0.80;;
71104;SDS011;58760;48.716;8.962;2024-02-26T05:19:38;2.17;;;0.88;;
71104;SDS011;58760;48.716;8.962;2024-02-26T05:22:04;2.10;;;0.80;;
71104;SDS011;58760;48.716;8.962;2024-02-26T05:24:29;2.53;;;0.90;;
71104;SDS011;58760;48.716;8.962;2024-02-26T05:26:56;2.72;;;0.82;;
71104;SDS011;58760;48.716;8.962;2024-02-26T05:29:21;4.00;;;0.80;;
71104;SDS011;58760;48.716;8.962;2024-02-26T05:31:47;1.55;;;0.70;;
71104;SDS011;58760;48.716;8.962;2024-02-26T05:34:16;1.52;;;0.80;;
71104;SDS011;58760;48.716;8.962;2024-02-26T05:39:07;2.60;;;0.68;;
71104;SDS011;58760;48.716;8.962;2024-02-26T05:41:32;1.52;;;0.80;;
71104;SDS011;58760;48.716;8.962;2024-02-26T05:43:59;1.65;;;0.80;;
71104;SDS011;58760;48.716;8.962;2024-02-26T05:46:24;4.03;;;1.00;;
71104;SDS011;58760;48.716;8.962;2024-02-26T05:48:50;2.90;;;0.82;;
71104;SDS011;58760;48.716;8.962;2024-02-26T05:51:17;2.55;;;1.00;;
71104;SDS011;58760;48.716;8.962;2024-02-26T05:53:47;3.78;;;1.00;;
71104;SDS011;58760;48.716;8.962;2024-02-26T05:56:18;2.20;;;1.10;;
71104;SDS011;58760;48.716;8.962;2024-02-26T05:58:45;1.88;;;0.98;;
71104;SDS011;58760;48.716;8.962;2024-02-26T06:01:10;3.13;;;1.10;;
71104;SDS011;58760;48.716;8.962;2024-02-26T06:03:36;3.50;;;0.93;;
71104;SDS011;58760;48.716;8.962;2024-02-26T06:06:01;3.53;;;1.23;;
71104;SDS011;58760;48.716;8.962;2024-02-26T06:08:27;3.90;;;1.30;;
71104;SDS011;58760;48.716;8.962;2024-02-26T06:10:54;4.55;;;1.10;;
71104;SDS011;58760;48.716;8.962;2024-02-26T06:13:19;3.72;;;1.20;;
71104;SDS011;58760;48.716;8.962;2024-02-26T06:15:45;3.38;;;1.13;;
71104;SDS011;58760;48.716;8.962;2024-02-26T06:18:11;3.05;;;1.00;;
71104;SDS011;58760;48.716;8.962;2024-02-26T06:20:37;2.00;;;1.00;;
71104;SDS011;58760;48.716;8.962;2024-02-26T06:23:02;2.05;;;0.90;;
71104;SDS011;58760;48.716;8.962;2024-02-26T06:25:28;3.28;;;1.10;;
71104;SDS011;58760;48.716;8.962;2024-02-26T06:27:53;4.45;;;1.10;;
71104;SDS011;58760;48.716;8.962;2024-02-26T06:30:20;2.80;;;0.98;;
71104;SDS011;58760;48.716;8.962;2024-02-26T06:32:45;2.75;;;1.10;;
71104;SDS011;58760;48.716;8.962;2024-02-26T06:35:11;6.13;;;1.27;;
71104;SDS011;58760;48.716;8.962;2024-02-26T06:37:37;3.55;;;1.15;;
71104;SDS011;58760;48.716;8.962;2024-02-26T06:40:03;4.53;;;1.23;;
71104;SDS011;58760;48.716;8.962;2024-02-26T06:42:31;3.25;;;1.00;;
71104;SDS011;58760;48.716;8.962;2024-02-26T06:45:00;2.70;;;1.20;;
71104;SDS011;58760;48.716;8.962;2024-02-26T06:47:26;5.15;;;1.30;;
71104;SDS011;58760;48.716;8.962;2024-02-26T06:49:51;4.25;;;1.40;;
71104;SDS011;58760;48.716;8.962;2024-02-26T06:52:16;3.70;;;1.30;;
71104;SDS011;58760;48.716;8.962;2024-02-26T06:54:42;3.50;;;1.30;;
71104;SDS011;58760;48.716;8.962;2024-02-26T06:57:07;3.78;;;1.20;;
71104;SDS011;58760;48.716;8.962;2024-02-26T06:59:33;2.97;;;1.20;;
71104;SDS011;58760;48.716;8.962;2024-02-26T07:01:58;5.93;;;1.33;;
71104;SDS011;58760;48.716;8.962;2024-02-26T07:04:24;7.13;;;1.50;;
71104;SDS011;58760;48.716;8.962;2024-02-26T07:06:49;3.33;;;1.45;;
71104;SDS011;58760;48.716;8.962;2024-02-26T07:16:45;4.32;;;1.35;;
71104;SDS011;58760;48.716;8.962;2024-02-26T07:47:59;4.50;;;1.60;;
71104;SDS011;58760;48.716;8.962;2024-02-26T07:50:32;4.18;;;1.55;;
71104;SDS011;58760;48.716;8.962;2024-02-26T07:53:45;3.38;;;1.60;;
71104;SDS011;58760;48.716;8.962;2024-02-26T07:56:15;5.68;;;1.50;;
71104;SDS011;58760;48.716;8.962;2024-02-26T07:58:47;3.42;;;1.48;;
71104;SDS011;58760;48.716;8.962;2024-02-26T08:01:18;5.68;;;1.42;;
71104;SDS011;58760;48.716;8.962;2024-02-26T08:03:45;4.80;;;1.67;;
71104;SDS011;58760;48.716;8.962;2024-02-26T08:06:16;3.85;;;1.40;;
71104;SDS011;58760;48.716;8.962;2024-02-26T08:08:47;4.22;;;1.50;;
71104;SDS011;58760;48.716;8.962;2024-02-26T08:11:18;8.07;;;1.80;;
71104;SDS011;58760;48.716;8.962;2024-02-26T08:13:53;7.55;;;1.88;;
71104;SDS011;58760;48.716;8.962;2024-02-26T08:17:04;4.97;;;1.60;;
71104;SDS011;58760;48.716;8.962;2024-02-26T08:19:39;3.95;;;1.73;;
71104;SDS011;58760;48.716;8.962;2024-02-26T08:24:48;5.22;;;1.42;;
71104;SDS011;58760;48.716;8.962;2024-02-26T08:27:34;3.47;;;1.40;;
71104;SDS011;58760;48.716;8.962;2024-02-26T08:36:50;4.13;;;1.38;;
71104;SDS011;58760;48.716;8.962;2024-02-26T08:46:46;3.72;;;0.90;;
71104;SDS011;58760;48.716;8.962;2024-02-26T08:56:30;1.30;;;0.82;;
71104;SDS011;58760;48.716;8.962;2024-02-26T09:00:17;2.22;;;0.80;;
71104;SDS011;58760;48.716;8.962;2024-02-26T09:02:58;1.58;;;0.80;;
71104;SDS011;58760;48.716;8.962;2024-02-26T09:06:11;2.08;;;0.90;;
71104;SDS011;58760;48.716;8.962;2024-02-26T09:08:54;1.48;;;0.70;;
71104;SDS011;58760;48.716;8.962;2024-02-26T09:11:28;3.30;;;1.00;;
71104;SDS011;58760;48.716;8.962;2024-02-26T09:14:21;1.92;;;0.88;;
71104;SDS011;58760;48.716;8.962;2024-02-26T09:23:46;4.30;;;1.30;;
71104;SDS011;58760;48.716;8.962;2024-02-26T09:31:08;3.53;;;0.93;;
71104;SDS011;58760;48.716;8.962;2024-02-26T09:33:57;4.07;;;0.90;;
71104;SDS011;58760;48.716;8.962;2024-02-26T09:42:06;2.30;;;0.95;;
71104;SDS011;58760;48.716;8.962;2024-02-26T09:44:35;1.80;;;0.90;;
71104;SDS011;58760;48.716;8.962;2024-02-26T09:47:03;3.75;;;1.00;;
71104;SDS011;58760;48.716;8.962;2024-02-26T09:49:32;1.45;;;0.80;;
71104;SDS011;58760;48.716;8.962;2024-02-26T09:51:57;2.25;;;1.02;;
71104;SDS011;58760;48.716;8.962;2024-02-26T09:56:51;1.90;;;0.90;;
71104;SDS011;58760;48.716;8.962;2024-02-26T09:59:20;3.72;;;0.73;;
71104;SDS011;58760;48.716;8.962;2024-02-26T10:01:45;2.72;;;0.80;;
71104;SDS011;58760;48.716;8.962;2024-02-26T10:04:12;1.83;;;0.85;;
71104;SDS011;58760;48.716;8.962;2024-02-26T10:06:39;2.40;;;0.90;;
71104;SDS011;58760;48.716;8.962;2024-02-26T10:09:05;2.75;;;1.00;;
71104;SDS011;58760;48.716;8.962;2024-02-26T10:11:34;2.50;;;1.00;;
71104;SDS011;58760;48.716;8.962;2024-02-26T10:14:00;3.42;;;1.10;;
71104;SDS011;58760;48.716;8.962;2024-02-26T10:16:25;7.20;;;1.00;;
71104;SDS011;58760;48.716;8.962;2024-02-26T10:18:52;2.10;;;1.10;;
71104;SDS011;58760;48.716;8.962;2024-02-26T10:21:21;3.65;;;0.90;;
71104;SDS011;58760;48.716;8.962;2024-02-26T10:23:48;3.63;;;1.15;;
71104;SDS011;58760;48.716;8.962;2024-02-26T10:26:15;2.22;;;0.90;;
71104;SDS011;58760;48.716;8.962;2024-02-26T10:28:41;4.13;;;1.02;;
71104;SDS011;58760;48.716;8.962;2024-02-26T10:31:08;4.03;;;1.10;;
71104;SDS011;58760;48.716;8.962;2024-02-26T10:33:35;4.10;;;1.00;;
71104;SDS011;58760;48.716;8.962;2024-02-26T10:36:02;4.70;;;1.10;;
71104;SDS011;58760;48.716;8.962;2024-02-26T10:38:30;1.80;;;0.82;;
71104;SDS011;58760;48.716;8.962;2024-02-26T10:40:55;2.83;;;1.00;;
71104;SDS011;58760;48.716;8.962;2024-02-26T10:43:21;1.80;;;0.88;;
71104;SDS011;58760;48.716;8.962;2024-02-26T10:45:46;2.00;;;0.80;;
71104;SDS011;58760;48.716;8.962;2024-02-26T10:48:13;2.65;;;0.98;;
71104;SDS011;58760;48.716;8.962;2024-02-26T10:50:40;3.08;;;0.98;;
71104;SDS011;58760;48.716;8.962;2024-02-26T10:53:26;2.13;;;1.00;;
71104;SDS011;58760;48.716;8.962;2024-02-26T10:55:55;2.63;;;1.00;;
71104;SDS011;58760;48.716;8.962;2024-02-26T10:58:24;2.17;;;1.13;;
71104;SDS011;58760;48.716;8.962;2024-02-26T11:00:50;1.95;;;0.93;;
71104;SDS011;58760;48.716;8.962;2024-02-26T11:03:16;2.88;;;1.10;;
71104;SDS011;58760;48.716;8.962;2024-02-26T11:05:44;2.92;;;1.00;;
71104;SDS011;58760;48.716;8.962;2024-02-26T11:08:12;1.92;;;1.00;;
71104;SDS011;58760;48.716;8.962;2024-02-26T11:10:38;3.10;;;1.08;;
71104;SDS011;58760;48.716;8.962;2024-02-26T11:13:05;2.15;;;0.90;;
71104;SDS011;58760;48.716;8.962;2024-02-26T11:29:29;5.00;;;1.02;;
71104;SDS011;58760;48.716;8.962;2024-02-26T11:32:16;3.10;;;0.80;;
71104;SDS011;58760;48.716;8.962;2024-02-26T11:34:44;6.72;;;0.88;;
71104;SDS011;58760;48.716;8.962;2024-02-26T11:37:14;3.08;;;1.48;;
71104;SDS011;58760;48.716;8.962;2024-02-26T11:39:44;2.78;;;0.93;;
71104;SDS011;58760;48.716;8.962;2024-02-26T11:42:14;3.13;;;0.80;;
71104;SDS011;58760;48.716;8.962;2024-02-26T11:44:46;2.75;;;0.90;;
71104;SDS011;58760;48.716;8.962;2024-02-26T11:47:24;1.98;;;0.80;;
71104;SDS011;58760;48.716;8.962;2024-02-26T11:49:52;3.28;;;0.93;;
71104;SDS011;58760;48.716;8.962;2024-02-26T11:52:20;4.18;;;0.90;;
71104;SDS011;58760;48.716;8.962;2024-02-26T11:54:53;2.75;;;1.10;;
71104;SDS011;58760;48.716;8.962;2024-02-26T11:57:22;4.63;;;1.00;;
71104;SDS011;58760;48.716;8.962;2024-02-26T12:00:09;3.20;;;0.90;;
71104;SDS011;58760;48.716;8.962;2024-02-26T12:07:44;3.38;;;1.10;;
71104;SDS011;58760;48.716;8.962;2024-02-26T12:10:35;2.88;;;0.98;;
71104;SDS011;58760;48.716;8.962;2024-02-26T12:13:10;3.25;;;1.10;;
71104;SDS011;58760;48.716;8.962;2024-02-26T12:15:41;3.45;;;1.20;;
71104;SDS011;58760;48.716;8.962;2024-02-26T12:18:16;1.77;;;0.70;;
71104;SDS011;58760;48.716;8.962;2024-02-26T12:20:43;2.47;;;1.00;;
71104;SDS011;58760;48.716;8.962;2024-02-26T12:23:15;3.35;;;1.10;;
71104;SDS011;58760;48.716;8.962;2024-02-26T12:25:44;2.55;;;0.93;;
71104;SDS011;58760;48.716;8.962;2024-02-26T12:28:13;2.92;;;1.00;;
71104;SDS011;58760;48.716;8.962;2024-02-26T12:30:39;1.88;;;0.80;;
71104;SDS011;58760;48.716;8.962;2024-02-26T12:33:04;2.60;;;0.90;;
71104;SDS011;58760;48.716;8.962;2024-02-26T12:35:31;4.55;;;0.95;;
71104;SDS011;58760;48.716;8.962;2024-02-26T12:37:57;2.92;;;1.10;;
71104;SDS011;58760;48.716;8.962;2024-02-26T12:40:23;4.70;;;1.00;;
71104;SDS011;58760;48.716;8.962;2024-02-26T12:42:49;2.67;;;0.80;;
71104;SDS011;58760;48.716;8.962;2024-02-26T12:45:15;2.67;;;0.90;;
71104;SDS011;58760;48.716;8.962;2024-02-26T12:47:41;3.58;;;1.00;;
71104;SDS011;58760;48.716;8.962;2024-02-26T12:50:08;4.07;;;1.00;;
71104;SDS011;58760;48.716;8.962;2024-02-26T12:52:37;2.65;;;0.70;;
71104;SDS011;58760;48.716;8.962;2024-02-26T12:55:04;1.92;;;0.40;;
71104;SDS011;58760;48.716;8.962;2024-02-26T12:57:32;1.05;;;0.47;;
71104;SDS011;58760;48.716;8.962;2024-02-26T12:59:59;3.50;;;0.95;;
71104;SDS011;58760;48.716;8.962;2024-02-26T13:02:26;1.85;;;0.80;;
71104;SDS011;58760;48.716;8.962;2024-02-26T13:04:52;1.95;;;0.82;;
71104;SDS011;58760;48.716;8.962;2024-02-26T13:07:19;1.83;;;0.73;;
71104;SDS011;58760;48.716;8.962;2024-02-26T13:09:45;0.95;;;0.52;;
71104;SDS011;58760;48.716;8.962;2024-02-26T13:12:11;2.08;;;0.73;;
71104;SDS011;58760;48.716;8.962;2024-02-26T13:14:37;3.17;;;0.70;;
71104;SDS011;58760;48.716;8.962;2024-02-26T13:17:02;1.05;;;0.57;;
71104;SDS011;58760;48.716;8.962;2024-02-26T13:19:28;0.85;;;0.43;;
71104;SDS011;58760;48.716;8.962;2024-02-26T13:21:53;3.35;;;0.70;;
71104;SDS011;58760;48.716;8.962;2024-02-26T13:24:19;0.93;;;0.43;;
71104;SDS011;58760;48.716;8.962;2024-02-26T13:26:57;1.30;;;0.50;;
71104;SDS011;58760;48.716;8.962;2024-02-26T13:29:23;1.27;;;0.70;;
71104;SDS011;58760;48.716;8.962;2024-02-26T13:31:59;1.45;;;0.50;;
71104;SDS011;58760;48.716;8.962;2024-02-26T13:34:25;0.88;;;0.43;;
71104;SDS011;58760;48.716;8.962;2024-02-26T13:36:52;0.90;;;0.38;;
71104;SDS011;58760;48.716;8.962;2024-02-26T13:39:25;1.23;;;0.45;;
71104;SDS011;58760;48.716;8.962;2024-02-26T13:41:51;0.80;;;0.40;;
71104;SDS011;58760;48.716;8.962;2024-02-26T13:44:17;1.30;;;0.50;;
71104;SDS011;58760;48.716;8.962;2024-02-26T13:46:44;1.65;;;0.60;;
71104;SDS011;58760;48.716;8.962;2024-02-26T13:49:12;0.85;;;0.50;;
71104;SDS011;58760;48.716;8.962;2024-02-26T13:51:38;1.38;;;0.47;;
71104;SDS011;58760;48.716;8.962;2024-02-26T13:54:04;0.82;;;0.30;;
71104;SDS011;58760;48.716;8.962;2024-02-26T13:56:30;1.55;;;0.60;;
71104;SDS011;58760;48.716;8.962;2024-02-26T13:58:56;1.88;;;0.55;;
71104;SDS011;58760;48.716;8.962;2024-02-26T14:01:22;1.85;;;0.60;;
71104;SDS011;58760;48.716;8.962;2024-02-26T14:03:47;3.75;;;0.60;;
71104;SDS011;58760;48.716;8.962;2024-02-26T14:06:13;0.43;;;0.30;;
71104;SDS011;58760;48.716;8.962;2024-02-26T14:08:39;0.47;;;0.30;;
71104;SDS011;58760;48.716;8.962;2024-02-26T14:11:04;0.82;;;0.50;;
71104;SDS011;58760;48.716;8.962;2024-02-26T14:13:30;0.80;;;0.60;;
71104;SDS011;58760;48.716;8.962;2024-02-26T14:18:22;6.47;;;0.70;;
71104;SDS011;58760;48.716;8.962;2024-02-26T14:20:48;2.10;;;0.60;;
71104;SDS011;58760;48.716;8.962;2024-02-26T14:23:14;3.80;;;0.73;;
71104;SDS011;58760;48.716;8.962;2024-02-26T14:28:05;1.05;;;0.55;;
71104;SDS011;58760;48.716;8.962;2024-02-26T14:32:56;3.00;;;0.60;;
71104;SDS011;58760;48.716;8.962;2024-02-26T14:37:47;3.85;;;0.70;;
71104;SDS011;58760;48.716;8.962;2024-02-26T14:40:15;4.28;;;0.60;;
71104;SDS011;58760;48.716;8.962;2024-02-26T14:42:41;0.88;;;0.50;;
71104;SDS011;58760;48.716;8.962;2024-02-26T14:47:34;4.55;;;0.85;;
71104;SDS011;58760;48.716;8.962;2024-02-26T14:50:01;1.52;;;0.90;;
71104;SDS011;58760;48.716;8.962;2024-02-26T14:52:27;2.88;;;0.90;;
71104;SDS011;58760;48.716;8.962;2024-02-26T14:54:53;2.90;;;1.00;;
71104;SDS011;58760;48.716;8.962;2024-02-26T14:57:18;4.05;;;0.82;;
71104;SDS011;58760;48.716;8.962;2024-02-26T14:59:44;3.35;;;1.10;;
71104;SDS011;58760;48.716;8.962;2024-02-26T15:02:09;3.28;;;0.88;;
71104;SDS011;58760;48.716;8.962;2024-02-26T15:04:38;3.20;;;0.77;;
71104;SDS011;58760;48.716;8.962;2024-02-26T15:07:04;4.43;;;1.20;;
71104;SDS011;58760;48.716;8.962;2024-02-26T15:09:30;2.10;;;0.90;;
71104;SDS011;58760;48.716;8.962;2024-02-26T15:11:55;2.92;;;0.85;;
71104;SDS011;58760;48.716;8.962;2024-02-26T15:14:22;5.55;;;1.20;;
71104;SDS011;58760;48.716;8.962;2024-02-26T15:19:15;5.25;;;1.65;;
71104;SDS011;58760;48.716;8.962;2024-02-26T15:21:44;4.82;;;1.20;;
71104;SDS011;58760;48.716;8.962;2024-02-26T15:24:11;2.47;;;0.80;;
71104;SDS011;58760;48.716;8.962;2024-02-26T15:26:37;2.47;;;0.90;;
71104;SDS011;58760;48.716;8.962;2024-02-26T15:31:28;1.85;;;0.80;;
71104;SDS011;58760;48.716;8.962;2024-02-26T15:33:53;8.70;;;1.05;;
71104;SDS011;58760;48.716;8.962;2024-02-26T15:36:19;1.10;;;0.65;;
71104;SDS011;58760;48.716;8.962;2024-02-26T15:38:45;3.33;;;0.70;;
71104;SDS011;58760;48.716;8.962;2024-02-26T15:41:12;4.43;;;0.70;;
71104;SDS011;58760;48.716;8.962;2024-02-26T15:43:38;3.08;;;0.70;;
71104;SDS011;58760;48.716;8.962;2024-02-26T15:46:05;1.70;;;0.70;;
71104;SDS011;58760;48.716;8.962;2024-02-26T15:48:33;6.03;;;2.30;;
71104;SDS011;58760;48.716;8.962;2024-02-26T15:51:07;6.82;;;2.30;;
71104;SDS011;58760;48.716;8.962;2024-02-26T15:53:51;9.30;;;3.53;;
71104;SDS011;58760;48.716;8.962;2024-02-26T15:56:20;7.75;;;2.17;;
71104;SDS011;58760;48.716;8.962;2024-02-26T15:58:49;2.70;;;1.30;;
71104;SDS011;58760;48.716;8.962;2024-02-26T16:01:16;5.50;;;2.03;;
71104;SDS011;58760;48.716;8.962;2024-02-26T16:03:45;5.30;;;1.63;;
71104;SDS011;58760;48.716;8.962;2024-02-26T16:06:14;5.07;;;2.10;;
71104;SDS011;58760;48.716;8.962;2024-02-26T16:08:57;5.03;;;1.60;;
71104;SDS011;58760;48.716;8.962;2024-02-26T16:11:22;4.25;;;1.73;;
71104;SDS011;58760;48.716;8.962;2024-02-26T16:13:48;2.72;;;1.10;;
71104;SDS011;58760;48.716;8.962;2024-02-26T16:16:21;4.10;;;1.60;;
71104;SDS011;58760;48.716;8.962;2024-02-26T16:18:51;3.72;;;1.40;;
71104;SDS011;58760;48.716;8.962;2024-02-26T16:21:30;4.43;;;1.70;;
71104;SDS011;58760;48.716;8.962;2024-02-26T16:23:55;4.80;;;1.83;;
71104;SDS011;58760;48.716;8.962;2024-02-26T16:26:22;2.75;;;1.10;;
71104;SDS011;58760;48.716;8.962;2024-02-26T16:28:48;4.07;;;1.70;;
71104;SDS011;58760;48.716;8.962;2024-02-26T16:31:21;4.07;;;1.60;;
71104;SDS011;58760;48.716;8.962;2024-02-26T16:33:46;34.25;;;2.83;;
71104;SDS011;58760;48.716;8.962;2024-02-26T16:36:12;3.67;;;0.90;;
71104;SDS011;58760;48.716;8.962;2024-02-26T16:38:37;4.28;;;1.00;;
71104;SDS011;58760;48.716;8.962;2024-02-26T16:41:05;3.00;;;1.02;;
71104;SDS011;58760;48.716;8.962;2024-02-26T16:43:31;3.10;;;1.10;;
71104;SDS011;58760;48.716;8.962;2024-02-26T16:45:58;5.55;;;2.20;;
71104;SDS011;58760;48.716;8.962;2024-02-26T16:48:25;4.47;;;2.00;;
71104;SDS011;58760;48.716;8.962;2024-02-26T16:50:50;8.18;;;3.60;;
71104;SDS011;58760;48.716;8.962;2024-02-26T16:53:16;10.57;;;3.60;;
71104;SDS011;58760;48.716;8.962;2024-02-26T16:55:41;4.68;;;2.10;;
71104;SDS011;58760;48.716;8.962;2024-02-26T16:58:08;3.63;;;1.38;;